sensor_id;sensor_type;location;lat;lon;timestamp;pressure;altitude;pressure_sealevel;temperature;humidity
69200;BME280;56313;49.804;9.952;2022-10-16T00:01:36;99069.16;;;15.04;93.34
69200;BME280;56313;49.804;9.952;2022-10-16T00:04:02;99065.50;;;15.05;93.40
69200;BME280;56313;49.804;9.952;2022-10-16T00:06:28;99067.50;;;15.03;93.44
69200;BME280;56313;49.804;9.952;2022-10-16T00:08:54;99066.69;;;15.02;93.80
69200;BME280;56313;49.804;9.952;2022-10-16T00:11:23;99060.59;;;15.02;94.08
69200;BME280;56313;49.804;9.952;2022-10-16T00:13:51;99061.78;;;14.99;94.08
69200;BME280;56313;49.804;9.952;2022-10-16T00:16:17;99059.41;;;15.04;93.46
69200;BME280;56313;49.804;9.952;2022-10-16T00:18:43;99066.03;;;15.00;93.85
69200;BME280;56313;49.804;9.952;2022-10-16T00:21:18;99062.78;;;14.98;94.18
69200;BME280;56313;49.804;9.952;2022-10-16T00:23:44;99059.31;;;14.98;94.21
69200;BME280;56313;49.804;9.952;2022-10-16T00:26:15;99059.50;;;14.96;94.69
69200;BME280;56313;49.804;9.952;2022-10-16T00:28:41;99073.88;;;14.93;94.96
69200;BME280;56313;49.804;9.952;2022-10-16T00:31:10;99071.78;;;14.89;95.34
69200;BME280;56313;49.804;9.952;2022-10-16T00:33:37;99071.94;;;14.87;95.79
69200;BME280;56313;49.804;9.952;2022-10-16T00:36:04;99074.94;;;14.84;96.08
69200;BME280;56313;49.804;9.952;2022-10-16T00:38:30;99071.13;;;14.87;96.39
69200;BME280;56313;49.804;9.952;2022-10-16T00:40:56;99060.13;;;14.83;96.61
69200;BME280;56313;49.804;9.952;2022-10-16T00:46:01;99072.84;;;14.79;96.81
69200;BME280;56313;49.804;9.952;2022-10-16T00:48:27;99066.09;;;14.77;96.88
69200;BME280;56313;49.804;9.952;2022-10-16T00:50:52;99058.19;;;14.77;96.96
69200;BME280;56313;49.804;9.952;2022-10-16T00:53:19;99063.31;;;14.78;97.05
69200;BME280;56313;49.804;9.952;2022-10-16T00:55:44;99067.75;;;14.78;96.93
69200;BME280;56313;49.804;9.952;2022-10-16T00:58:11;99068.91;;;14.75;97.65
69200;BME280;56313;49.804;9.952;2022-10-16T01:00:36;99065.25;;;14.76;97.23
69200;BME280;56313;49.804;9.952;2022-10-16T01:03:26;99069.19;;;14.80;97.11
69200;BME280;56313;49.804;9.952;2022-10-16T01:06:02;99073.03;;;14.78;97.35
69200;BME280;56313;49.804;9.952;2022-10-16T01:08:39;99080.28;;;14.76;96.62
69200;BME280;56313;49.804;9.952;2022-10-16T01:13:50;99090.66;;;14.77;96.58
69200;BME280;56313;49.804;9.952;2022-10-16T01:17:04;99092.63;;;14.75;96.79
69200;BME280;56313;49.804;9.952;2022-10-16T01:22:20;99112.78;;;14.68;97.26
69200;BME280;56313;49.804;9.952;2022-10-16T01:24:53;99106.25;;;14.64;97.43
69200;BME280;56313;49.804;9.952;2022-10-16T01:27:25;99113.81;;;14.67;97.35
69200;BME280;56313;49.804;9.952;2022-10-16T01:30:04;99108.81;;;14.72;97.19
69200;BME280;56313;49.804;9.952;2022-10-16T01:32:41;99116.53;;;14.74;97.15
69200;BME280;56313;49.804;9.952;2022-10-16T01:35:17;99111.75;;;14.77;97.34
69200;BME280;56313;49.804;9.952;2022-10-16T01:37:51;99116.19;;;14.77;97.68
69200;BME280;56313;49.804;9.952;2022-10-16T01:40:20;99119.53;;;14.70;97.15
69200;BME280;56313;49.804;9.952;2022-10-16T01:42:50;99121.63;;;14.75;96.80
69200;BME280;56313;49.804;9.952;2022-10-16T01:45:18;99118.00;;;14.76;96.71
69200;BME280;56313;49.804;9.952;2022-10-16T01:47:45;99117.38;;;14.74;96.46
69200;BME280;56313;49.804;9.952;2022-10-16T01:50:13;99096.97;;;14.68;96.00
69200;BME280;56313;49.804;9.952;2022-10-16T01:52:43;99103.72;;;14.70;96.16
69200;BME280;56313;49.804;9.952;2022-10-16T01:55:12;99108.53;;;14.67;96.06
69200;BME280;56313;49.804;9.952;2022-10-16T01:57:42;99116.78;;;14.64;96.28
69200;BME280;56313;49.804;9.952;2022-10-16T02:00:12;99116.47;;;14.59;96.32
69200;BME280;56313;49.804;9.952;2022-10-16T02:02:40;99108.41;;;14.60;96.33
69200;BME280;56313;49.804;9.952;2022-10-16T02:05:26;99100.66;;;14.59;96.36
69200;BME280;56313;49.804;9.952;2022-10-16T02:07:52;99102.97;;;14.62;96.59
69200;BME280;56313;49.804;9.952;2022-10-16T02:10:18;99098.88;;;14.59;96.41
69200;BME280;56313;49.804;9.952;2022-10-16T02:12:53;99102.31;;;14.60;96.20
69200;BME280;56313;49.804;9.952;2022-10-16T02:15:20;99105.59;;;14.62;96.63
69200;BME280;56313;49.804;9.952;2022-10-16T02:17:46;99108.41;;;14.60;96.97
69200;BME280;56313;49.804;9.952;2022-10-16T02:20:11;99099.66;;;14.60;96.94
69200;BME280;56313;49.804;9.952;2022-10-16T02:22:43;99104.59;;;14.63;97.03
69200;BME280;56313;49.804;9.952;2022-10-16T02:25:39;99107.88;;;14.65;97.22
69200;BME280;56313;49.804;9.952;2022-10-16T02:28:32;99105.25;;;14.65;97.17
69200;BME280;56313;49.804;9.952;2022-10-16T02:31:03;99107.88;;;14.65;97.40
69200;BME280;56313;49.804;9.952;2022-10-16T02:33:31;99099.78;;;14.66;97.49
69200;BME280;56313;49.804;9.952;2022-10-16T02:35:57;99104.22;;;14.66;97.34
69200;BME280;56313;49.804;9.952;2022-10-16T02:38:23;99108.31;;;14.68;96.85
69200;BME280;56313;49.804;9.952;2022-10-16T02:40:49;99113.25;;;14.72;96.75
69200;BME280;56313;49.804;9.952;2022-10-16T02:43:15;99112.28;;;14.73;96.86
69200;BME280;56313;49.804;9.952;2022-10-16T02:45:41;99110.59;;;14.72;96.56
69200;BME280;56313;49.804;9.952;2022-10-16T02:48:06;99114.91;;;14.73;97.21
69200;BME280;56313;49.804;9.952;2022-10-16T02:50:32;99118.50;;;14.72;97.20
69200;BME280;56313;49.804;9.952;2022-10-16T02:52:58;99120.34;;;14.71;97.33
69200;BME280;56313;49.804;9.952;2022-10-16T02:55:23;99117.72;;;14.71;97.41
69200;BME280;56313;49.804;9.952;2022-10-16T02:57:48;99124.97;;;14.69;97.92
69200;BME280;56313;49.804;9.952;2022-10-16T03:00:16;99114.59;;;14.67;98.03
69200;BME280;56313;49.804;9.952;2022-10-16T03:02:42;99115.44;;;14.68;98.34
69200;BME280;56313;49.804;9.952;2022-10-16T03:05:07;99117.41;;;14.66;98.36
69200;BME280;56313;49.804;9.952;2022-10-16T03:07:33;99119.69;;;14.69;98.40
69200;BME280;56313;49.804;9.952;2022-10-16T03:09:59;99117.41;;;14.66;98.60
69200;BME280;56313;49.804;9.952;2022-10-16T03:12:27;99113.16;;;14.65;98.78
69200;BME280;56313;49.804;9.952;2022-10-16T03:14:53;99111.97;;;14.67;98.40
69200;BME280;56313;49.804;9.952;2022-10-16T03:17:18;99107.88;;;14.65;98.85
69200;BME280;56313;49.804;9.952;2022-10-16T03:19:44;99107.22;;;14.63;98.69
69200;BME280;56313;49.804;9.952;2022-10-16T03:22:09;99101.50;;;14.59;98.44
69200;BME280;56313;49.804;9.952;2022-10-16T03:24:37;99093.94;;;14.56;98.53
69200;BME280;56313;49.804;9.952;2022-10-16T03:27:03;99094.94;;;14.55;98.53
69200;BME280;56313;49.804;9.952;2022-10-16T03:29:28;99111.28;;;14.50;98.25
69200;BME280;56313;49.804;9.952;2022-10-16T03:31:55;99114.28;;;14.47;98.19
69200;BME280;56313;49.804;9.952;2022-10-16T03:34:21;99119.47;;;14.32;99.10
69200;BME280;56313;49.804;9.952;2022-10-16T03:36:46;99117.69;;;14.32;98.81
69200;BME280;56313;49.804;9.952;2022-10-16T03:39:12;99122.47;;;14.29;99.23
69200;BME280;56313;49.804;9.952;2022-10-16T03:41:37;99119.00;;;14.28;99.33
69200;BME280;56313;49.804;9.952;2022-10-16T03:44:02;99115.41;;;14.29;99.21
69200;BME280;56313;49.804;9.952;2022-10-16T03:46:28;99120.66;;;14.29;99.16
69200;BME280;56313;49.804;9.952;2022-10-16T03:48:54;99123.63;;;14.26;99.26
69200;BME280;56313;49.804;9.952;2022-10-16T03:51:20;99117.19;;;14.29;99.23
69200;BME280;56313;49.804;9.952;2022-10-16T03:53:46;99128.22;;;14.32;99.30
69200;BME280;56313;49.804;9.952;2022-10-16T03:56:11;99123.91;;;14.31;99.15
69200;BME280;56313;49.804;9.952;2022-10-16T03:58:36;99131.66;;;14.33;98.88
69200;BME280;56313;49.804;9.952;2022-10-16T04:01:02;99129.53;;;14.28;99.04
69200;BME280;56313;49.804;9.952;2022-10-16T04:03:27;99124.75;;;14.32;98.64
69200;BME280;56313;49.804;9.952;2022-10-16T04:05:53;99131.66;;;14.33;98.54
69200;BME280;56313;49.804;9.952;2022-10-16T04:08:19;99126.22;;;14.35;98.89
69200;BME280;56313;49.804;9.952;2022-10-16T04:10:44;99134.81;;;14.28;98.61
69200;BME280;56313;49.804;9.952;2022-10-16T04:13:10;99132.16;;;14.28;98.72
69200;BME280;56313;49.804;9.952;2022-10-16T04:15:36;99139.56;;;14.33;98.56
69200;BME280;56313;49.804;9.952;2022-10-16T04:18:01;99141.22;;;14.34;98.31
69200;BME280;56313;49.804;9.952;2022-10-16T04:20:26;99144.47;;;14.36;98.19
69200;BME280;56313;49.804;9.952;2022-10-16T04:22:52;99147.63;;;14.31;97.85
69200;BME280;56313;49.804;9.952;2022-10-16T04:25:18;99143.13;;;14.40;97.83
69200;BME280;56313;49.804;9.952;2022-10-16T04:27:43;99146.75;;;14.39;97.72
69200;BME280;56313;49.804;9.952;2022-10-16T04:30:09;99144.97;;;14.40;97.87
69200;BME280;56313;49.804;9.952;2022-10-16T04:32:34;99142.31;;;14.40;98.17
69200;BME280;56313;49.804;9.952;2022-10-16T04:35:00;99148.56;;;14.39;98.02
69200;BME280;56313;49.804;9.952;2022-10-16T04:37:26;99143.50;;;14.37;98.52
69200;BME280;56313;49.804;9.952;2022-10-16T04:39:53;99143.50;;;14.37;98.31
69200;BME280;56313;49.804;9.952;2022-10-16T04:42:18;99146.94;;;14.38;98.10
69200;BME280;56313;49.804;9.952;2022-10-16T04:44:44;99161.75;;;14.39;98.07
69200;BME280;56313;49.804;9.952;2022-10-16T04:47:09;99168.34;;;14.43;97.54
69200;BME280;56313;49.804;9.952;2022-10-16T04:49:34;99169.66;;;14.39;97.85
69200;BME280;56313;49.804;9.952;2022-10-16T04:52:00;99173.13;;;14.39;98.33
69200;BME280;56313;49.804;9.952;2022-10-16T04:54:25;99170.13;;;14.42;97.95
69200;BME280;56313;49.804;9.952;2022-10-16T04:56:50;99180.34;;;14.46;97.80
69200;BME280;56313;49.804;9.952;2022-10-16T04:59:18;99182.31;;;14.43;97.99
69200;BME280;56313;49.804;9.952;2022-10-16T05:01:44;99182.47;;;14.42;97.94
69200;BME280;56313;49.804;9.952;2022-10-16T05:04:10;99172.78;;;14.42;97.63
69200;BME280;56313;49.804;9.952;2022-10-16T05:06:36;99161.88;;;14.46;96.90
69200;BME280;56313;49.804;9.952;2022-10-16T05:09:05;99158.41;;;14.45;97.52
69200;BME280;56313;49.804;9.952;2022-10-16T05:11:31;99163.34;;;14.48;97.52
69200;BME280;56313;49.804;9.952;2022-10-16T05:13:57;99152.34;;;14.44;97.49
69200;BME280;56313;49.804;9.952;2022-10-16T05:16:22;99161.72;;;14.47;97.22
69200;BME280;56313;49.804;9.952;2022-10-16T05:18:47;99167.50;;;14.42;96.99
69200;BME280;56313;49.804;9.952;2022-10-16T05:21:13;99179.16;;;14.48;96.84
69200;BME280;56313;49.804;9.952;2022-10-16T05:23:39;99173.88;;;14.48;96.71
69200;BME280;56313;49.804;9.952;2022-10-16T05:26:04;99181.63;;;14.50;96.36
69200;BME280;56313;49.804;9.952;2022-10-16T05:28:30;99183.41;;;14.49;96.78
69200;BME280;56313;49.804;9.952;2022-10-16T05:30:56;99177.34;;;14.49;96.64
69200;BME280;56313;49.804;9.952;2022-10-16T05:33:24;99183.22;;;14.59;96.21
69200;BME280;56313;49.804;9.952;2022-10-16T05:35:50;99182.72;;;14.55;96.47
69200;BME280;56313;49.804;9.952;2022-10-16T05:38:16;99183.06;;;14.52;96.38
69200;BME280;56313;49.804;9.952;2022-10-16T05:40:42;99185.19;;;14.57;95.79
69200;BME280;56313;49.804;9.952;2022-10-16T05:43:07;99176.31;;;14.58;95.61
69200;BME280;56313;49.804;9.952;2022-10-16T05:45:33;99164.81;;;14.51;96.15
69200;BME280;56313;49.804;9.952;2022-10-16T05:47:59;99170.31;;;14.41;96.50
69200;BME280;56313;49.804;9.952;2022-10-16T05:50:25;99171.75;;;14.43;96.42
69200;BME280;56313;49.804;9.952;2022-10-16T05:52:50;99184.59;;;14.47;96.31
69200;BME280;56313;49.804;9.952;2022-10-16T05:55:16;99189.88;;;14.47;96.26
69200;BME280;56313;49.804;9.952;2022-10-16T05:57:41;99192.22;;;14.41;96.53
69200;BME280;56313;49.804;9.952;2022-10-16T06:00:07;99174.41;;;14.43;96.57
69200;BME280;56313;49.804;9.952;2022-10-16T06:02:33;99182.13;;;14.45;96.35
69200;BME280;56313;49.804;9.952;2022-10-16T06:04:58;99184.16;;;14.43;96.27
69200;BME280;56313;49.804;9.952;2022-10-16T06:07:24;99198.28;;;14.42;96.60
69200;BME280;56313;49.804;9.952;2022-10-16T06:09:52;99204.75;;;14.39;96.50
69200;BME280;56313;49.804;9.952;2022-10-16T06:12:18;99196.50;;;14.42;96.50
69200;BME280;56313;49.804;9.952;2022-10-16T06:14:45;99200.41;;;14.47;95.87
69200;BME280;56313;49.804;9.952;2022-10-16T06:17:12;99207.19;;;14.41;96.01
69200;BME280;56313;49.804;9.952;2022-10-16T06:19:38;99201.06;;;14.49;95.83
69200;BME280;56313;49.804;9.952;2022-10-16T06:22:03;99204.22;;;14.44;96.07
69200;BME280;56313;49.804;9.952;2022-10-16T06:24:29;99203.72;;;14.40;96.44
69200;BME280;56313;49.804;9.952;2022-10-16T06:26:54;99210.16;;;14.46;96.10
69200;BME280;56313;49.804;9.952;2022-10-16T06:29:20;99197.44;;;14.50;95.59
69200;BME280;56313;49.804;9.952;2022-10-16T06:31:45;99210.78;;;14.48;95.88
69200;BME280;56313;49.804;9.952;2022-10-16T06:34:11;99222.00;;;14.42;96.00
69200;BME280;56313;49.804;9.952;2022-10-16T06:36:37;99230.09;;;14.40;96.46
69200;BME280;56313;49.804;9.952;2022-10-16T06:39:04;99232.72;;;14.40;96.57
69200;BME280;56313;49.804;9.952;2022-10-16T06:41:33;99237.03;;;14.41;96.48
69200;BME280;56313;49.804;9.952;2022-10-16T06:43:58;99236.34;;;14.39;96.62
69200;BME280;56313;49.804;9.952;2022-10-16T06:46:25;99235.00;;;14.43;96.60
69200;BME280;56313;49.804;9.952;2022-10-16T06:48:52;99240.25;;;14.52;96.05
69200;BME280;56313;49.804;9.952;2022-10-16T06:51:19;99255.56;;;14.56;96.01
69200;BME280;56313;49.804;9.952;2022-10-16T06:53:50;99249.72;;;14.61;95.82
69200;BME280;56313;49.804;9.952;2022-10-16T06:58:43;99251.66;;;14.76;95.31
69200;BME280;56313;49.804;9.952;2022-10-16T07:01:10;99272.75;;;14.76;94.82
69200;BME280;56313;49.804;9.952;2022-10-16T07:03:43;99271.41;;;14.80;94.41
69200;BME280;56313;49.804;9.952;2022-10-16T07:06:10;99272.03;;;14.82;94.18
69200;BME280;56313;49.804;9.952;2022-10-16T07:08:39;99282.78;;;14.80;93.80
69200;BME280;56313;49.804;9.952;2022-10-16T07:11:13;99277.16;;;14.84;93.71
69200;BME280;56313;49.804;9.952;2022-10-16T07:13:41;99282.25;;;14.85;93.78
69200;BME280;56313;49.804;9.952;2022-10-16T07:16:12;99285.06;;;14.84;93.85
69200;BME280;56313;49.804;9.952;2022-10-16T07:18:37;99290.16;;;14.85;93.84
69200;BME280;56313;49.804;9.952;2022-10-16T07:21:06;99302.19;;;14.88;94.38
69200;BME280;56313;49.804;9.952;2022-10-16T07:23:32;99305.97;;;14.85;94.00
69200;BME280;56313;49.804;9.952;2022-10-16T07:25:58;99314.84;;;14.92;93.87
69200;BME280;56313;49.804;9.952;2022-10-16T07:28:23;99318.13;;;14.94;93.68
69200;BME280;56313;49.804;9.952;2022-10-16T07:30:48;99332.50;;;14.92;93.73
69200;BME280;56313;49.804;9.952;2022-10-16T07:33:38;99330.31;;;14.95;93.65
69200;BME280;56313;49.804;9.952;2022-10-16T07:36:05;99297.56;;;14.90;94.51
69200;BME280;56313;49.804;9.952;2022-10-16T07:38:31;99300.44;;;14.80;95.53
69200;BME280;56313;49.804;9.952;2022-10-16T07:41:01;99299.59;;;14.79;96.39
69200;BME280;56313;49.804;9.952;2022-10-16T07:43:30;99305.34;;;14.83;97.17
69200;BME280;56313;49.804;9.952;2022-10-16T07:45:56;99315.66;;;14.93;97.09
69200;BME280;56313;49.804;9.952;2022-10-16T07:48:22;99322.56;;;14.94;97.21
69200;BME280;56313;49.804;9.952;2022-10-16T07:50:48;99318.13;;;14.94;96.64
69200;BME280;56313;49.804;9.952;2022-10-16T07:53:27;99319.72;;;15.04;96.70
69200;BME280;56313;49.804;9.952;2022-10-16T07:56:08;99321.72;;;15.02;96.25
69200;BME280;56313;49.804;9.952;2022-10-16T07:58:34;99318.03;;;15.11;96.23
69200;BME280;56313;49.804;9.952;2022-10-16T08:01:09;99316.50;;;15.17;96.49
69200;BME280;56313;49.804;9.952;2022-10-16T08:03:45;99315.31;;;15.19;96.34
69200;BME280;56313;49.804;9.952;2022-10-16T08:06:14;99331.97;;;15.20;95.96
69200;BME280;56313;49.804;9.952;2022-10-16T08:08:42;99336.25;;;15.21;96.18
69200;BME280;56313;49.804;9.952;2022-10-16T08:11:08;99338.03;;;15.29;95.82
69200;BME280;56313;49.804;9.952;2022-10-16T08:13:33;99325.84;;;15.28;95.40
69200;BME280;56313;49.804;9.952;2022-10-16T08:15:59;99336.38;;;15.28;96.09
69200;BME280;56313;49.804;9.952;2022-10-16T08:18:25;99339.03;;;15.28;96.21
69200;BME280;56313;49.804;9.952;2022-10-16T08:20:58;99346.28;;;15.26;95.92
69200;BME280;56313;49.804;9.952;2022-10-16T08:23:25;99347.91;;;15.27;95.71
69200;BME280;56313;49.804;9.952;2022-10-16T08:25:53;99347.41;;;15.31;95.06
69200;BME280;56313;49.804;9.952;2022-10-16T08:28:19;99350.44;;;15.43;95.13
69200;BME280;56313;49.804;9.952;2022-10-16T08:30:44;99353.84;;;15.52;95.12
69200;BME280;56313;49.804;9.952;2022-10-16T08:33:10;99355.66;;;15.52;94.70
69200;BME280;56313;49.804;9.952;2022-10-16T08:35:35;99362.41;;;15.54;94.79
69200;BME280;56313;49.804;9.952;2022-10-16T08:38:03;99367.03;;;15.52;94.66
69200;BME280;56313;49.804;9.952;2022-10-16T08:40:30;99364.50;;;15.59;94.49
69200;BME280;56313;49.804;9.952;2022-10-16T08:51:08;99368.06;;;15.90;93.42
69200;BME280;56313;49.804;9.952;2022-10-16T08:56:17;99366.75;;;16.09;93.09
69200;BME280;56313;49.804;9.952;2022-10-16T08:59:10;99377.31;;;16.09;91.76
69200;BME280;56313;49.804;9.952;2022-10-16T09:01:47;99377.22;;;16.17;91.92
69200;BME280;56313;49.804;9.952;2022-10-16T09:07:04;99382.84;;;16.14;91.98
69200;BME280;56313;49.804;9.952;2022-10-16T09:18:17;99392.50;;;16.07;90.70
69200;BME280;56313;49.804;9.952;2022-10-16T09:23:25;99398.66;;;16.23;91.17
69200;BME280;56313;49.804;9.952;2022-10-16T09:25:52;99399.19;;;16.18;90.95
69200;BME280;56313;49.804;9.952;2022-10-16T09:28:19;99395.53;;;16.34;91.00
69200;BME280;56313;49.804;9.952;2022-10-16T09:30:45;99402.47;;;16.35;90.85
69200;BME280;56313;49.804;9.952;2022-10-16T09:33:12;99405.75;;;16.37;89.81
69200;BME280;56313;49.804;9.952;2022-10-16T09:38:06;99404.09;;;16.51;89.52
69200;BME280;56313;49.804;9.952;2022-10-16T09:40:35;99402.28;;;16.52;89.80
69200;BME280;56313;49.804;9.952;2022-10-16T09:43:06;99400.84;;;16.49;89.99
69200;BME280;56313;49.804;9.952;2022-10-16T09:45:37;99403.66;;;16.48;89.21
69200;BME280;56313;49.804;9.952;2022-10-16T09:48:11;99413.56;;;16.30;89.25
69200;BME280;56313;49.804;9.952;2022-10-16T09:50:37;99419.44;;;16.26;89.10
69200;BME280;56313;49.804;9.952;2022-10-16T09:53:11;99418.69;;;16.32;90.45
69200;BME280;56313;49.804;9.952;2022-10-16T09:55:51;99427.81;;;16.29;89.69
69200;BME280;56313;49.804;9.952;2022-10-16T09:58:16;99430.00;;;16.41;91.79
69200;BME280;56313;49.804;9.952;2022-10-16T10:00:52;99427.09;;;16.36;91.66
69200;BME280;56313;49.804;9.952;2022-10-16T10:03:35;99428.34;;;16.40;91.87
69200;BME280;56313;49.804;9.952;2022-10-16T10:06:28;99433.75;;;16.31;91.08
69200;BME280;56313;49.804;9.952;2022-10-16T10:08:58;99440.66;;;16.32;90.02
69200;BME280;56313;49.804;9.952;2022-10-16T10:11:39;99444.69;;;16.43;90.57
69200;BME280;56313;49.804;9.952;2022-10-16T10:14:30;99452.25;;;16.46;91.21
69200;BME280;56313;49.804;9.952;2022-10-16T10:19:30;99458.53;;;16.45;91.83
69200;BME280;56313;49.804;9.952;2022-10-16T10:22:15;99459.53;;;16.44;91.98
69200;BME280;56313;49.804;9.952;2022-10-16T10:24:41;99459.47;;;16.38;92.28
69200;BME280;56313;49.804;9.952;2022-10-16T10:27:13;99458.16;;;16.33;92.42
69200;BME280;56313;49.804;9.952;2022-10-16T10:35:49;99493.22;;;16.12;94.21
69200;BME280;56313;49.804;9.952;2022-10-16T10:44:11;99487.16;;;16.03;95.19
69200;BME280;56313;49.804;9.952;2022-10-16T10:47:08;99480.97;;;16.11;95.41
69200;BME280;56313;49.804;9.952;2022-10-16T10:49:53;99473.19;;;16.18;95.06
69200;BME280;56313;49.804;9.952;2022-10-16T10:55:21;99469.66;;;16.56;94.61
69200;BME280;56313;49.804;9.952;2022-10-16T10:58:25;99469.13;;;16.76;94.79
69200;BME280;56313;49.804;9.952;2022-10-16T11:01:04;99463.84;;;16.91;94.04
69200;BME280;56313;49.804;9.952;2022-10-16T11:06:25;99471.44;;;17.09;93.12
69200;BME280;56313;49.804;9.952;2022-10-16T11:09:09;99474.50;;;17.13;91.06
69200;BME280;56313;49.804;9.952;2022-10-16T11:11:45;99467.06;;;17.38;90.36
69200;BME280;56313;49.804;9.952;2022-10-16T11:14:17;99465.09;;;17.25;89.87
69200;BME280;56313;49.804;9.952;2022-10-16T11:17:19;99476.66;;;17.24;88.07
69200;BME280;56313;49.804;9.952;2022-10-16T11:22:36;99463.19;;;17.04;87.79
69200;BME280;56313;49.804;9.952;2022-10-16T11:25:27;99465.00;;;17.18;88.69
69200;BME280;56313;49.804;9.952;2022-10-16T11:30:28;99463.06;;;17.27;88.25
69200;BME280;56313;49.804;9.952;2022-10-16T11:38:03;99451.00;;;17.40;87.77
69200;BME280;56313;49.804;9.952;2022-10-16T11:40:32;99459.03;;;17.31;87.89
69200;BME280;56313;49.804;9.952;2022-10-16T11:43:10;99452.53;;;17.49;87.56
69200;BME280;56313;49.804;9.952;2022-10-16T11:45:42;99448.03;;;16.97;85.54
69200;BME280;56313;49.804;9.952;2022-10-16T11:51:03;99451.94;;;17.02;82.46
69200;BME280;56313;49.804;9.952;2022-10-16T11:53:42;99453.13;;;16.99;82.75
69200;BME280;56313;49.804;9.952;2022-10-16T11:56:18;99437.44;;;17.71;86.38
69200;BME280;56313;49.804;9.952;2022-10-16T11:58:55;99437.72;;;17.55;84.16
69200;BME280;56313;49.804;9.952;2022-10-16T12:01:28;99439.09;;;18.01;85.11
69200;BME280;56313;49.804;9.952;2022-10-16T12:04:30;99436.06;;;18.04;84.53
69200;BME280;56313;49.804;9.952;2022-10-16T12:07:12;99440.16;;;17.78;83.68
69200;BME280;56313;49.804;9.952;2022-10-16T12:09:40;99438.81;;;17.67;80.45
69200;BME280;56313;49.804;9.952;2022-10-16T12:17:36;99432.75;;;18.17;82.13
69200;BME280;56313;49.804;9.952;2022-10-16T12:20:29;99429.00;;;18.40;81.56
69200;BME280;56313;49.804;9.952;2022-10-16T12:22:57;99420.41;;;18.31;81.39
69200;BME280;56313;49.804;9.952;2022-10-16T12:25:33;99415.56;;;18.13;80.08
69200;BME280;56313;49.804;9.952;2022-10-16T12:28:04;99421.22;;;18.32;78.79
69200;BME280;56313;49.804;9.952;2022-10-16T12:31:07;99423.78;;;17.46;77.25
69200;BME280;56313;49.804;9.952;2022-10-16T12:34:02;99429.03;;;17.90;79.12
69200;BME280;56313;49.804;9.952;2022-10-16T12:36:31;99429.91;;;17.97;80.22
69200;BME280;56313;49.804;9.952;2022-10-16T12:38:57;99427.44;;;17.95;82.50
69200;BME280;56313;49.804;9.952;2022-10-16T12:41:32;99428.31;;;18.25;79.88
69200;BME280;56313;49.804;9.952;2022-10-16T12:43:58;99437.47;;;17.34;80.87
69200;BME280;56313;49.804;9.952;2022-10-16T12:52:26;99441.75;;;18.01;79.76
69200;BME280;56313;49.804;9.952;2022-10-16T12:54:56;99446.81;;;18.46;79.10
69200;BME280;56313;49.804;9.952;2022-10-16T13:08:44;99438.94;;;18.60;81.47
69200;BME280;56313;49.804;9.952;2022-10-16T13:14:14;99436.94;;;18.76;80.61
69200;BME280;56313;49.804;9.952;2022-10-16T13:22:11;99445.81;;;18.90;80.54
69200;BME280;56313;49.804;9.952;2022-10-16T13:28:01;99449.75;;;19.01;79.38
69200;BME280;56313;49.804;9.952;2022-10-16T13:30:30;99447.06;;;19.49;77.97
69200;BME280;56313;49.804;9.952;2022-10-16T13:35:36;99441.28;;;18.83;76.83
69200;BME280;56313;49.804;9.952;2022-10-16T13:40:36;99440.50;;;18.96;79.93
69200;BME280;56313;49.804;9.952;2022-10-16T13:43:17;99447.81;;;18.81;79.25
69200;BME280;56313;49.804;9.952;2022-10-16T13:46:12;99448.88;;;18.51;76.17
69200;BME280;56313;49.804;9.952;2022-10-16T13:48:39;99461.13;;;18.23;76.83
69200;BME280;56313;49.804;9.952;2022-10-16T13:51:16;99458.63;;;17.93;80.13
69200;BME280;56313;49.804;9.952;2022-10-16T13:53:44;99457.09;;;17.40;76.01
69200;BME280;56313;49.804;9.952;2022-10-16T13:56:15;99459.16;;;16.93;78.32
69200;BME280;56313;49.804;9.952;2022-10-16T13:58:41;99459.97;;;17.60;77.93
69200;BME280;56313;49.804;9.952;2022-10-16T14:01:27;99464.63;;;17.58;76.27
69200;BME280;56313;49.804;9.952;2022-10-16T14:04:03;99469.06;;;18.23;76.74
69200;BME280;56313;49.804;9.952;2022-10-16T14:06:35;99471.94;;;17.04;76.04
69200;BME280;56313;49.804;9.952;2022-10-16T14:09:07;99476.16;;;18.16;79.91
69200;BME280;56313;49.804;9.952;2022-10-16T14:11:37;99479.69;;;18.23;75.28
69200;BME280;56313;49.804;9.952;2022-10-16T14:14:04;99474.81;;;18.27;74.80
69200;BME280;56313;49.804;9.952;2022-10-16T14:16:30;99472.38;;;18.54;78.16
69200;BME280;56313;49.804;9.952;2022-10-16T14:19:05;99475.81;;;18.55;78.21
69200;BME280;56313;49.804;9.952;2022-10-16T14:21:36;99469.06;;;18.87;77.08
69200;BME280;56313;49.804;9.952;2022-10-16T14:24:19;99471.88;;;18.79;77.42
69200;BME280;56313;49.804;9.952;2022-10-16T14:26:47;99468.88;;;18.89;76.83
69200;BME280;56313;49.804;9.952;2022-10-16T14:29:17;99465.03;;;19.05;76.62
69200;BME280;56313;49.804;9.952;2022-10-16T14:31:54;99461.41;;;19.06;76.52
69200;BME280;56313;49.804;9.952;2022-10-16T14:34:31;99467.09;;;19.03;76.33
69200;BME280;56313;49.804;9.952;2022-10-16T14:37:22;99467.25;;;18.95;76.67
69200;BME280;56313;49.804;9.952;2022-10-16T14:39:49;99471.72;;;18.87;77.20
69200;BME280;56313;49.804;9.952;2022-10-16T14:42:32;99468.00;;;18.82;77.44
69200;BME280;56313;49.804;9.952;2022-10-16T14:44:57;99466.78;;;18.84;77.98
69200;BME280;56313;49.804;9.952;2022-10-16T14:47:25;99459.91;;;18.90;77.73
69200;BME280;56313;49.804;9.952;2022-10-16T14:49:52;99464.19;;;18.91;77.83
69200;BME280;56313;49.804;9.952;2022-10-16T14:52:20;99464.06;;;18.71;78.41
69200;BME280;56313;49.804;9.952;2022-10-16T14:54:49;99464.50;;;18.74;79.18
69200;BME280;56313;49.804;9.952;2022-10-16T14:57:24;99465.91;;;18.70;79.26
69200;BME280;56313;49.804;9.952;2022-10-16T14:59:52;99472.25;;;18.69;79.11
69200;BME280;56313;49.804;9.952;2022-10-16T15:04:47;99487.03;;;18.50;79.97
69200;BME280;56313;49.804;9.952;2022-10-16T15:07:12;99483.53;;;18.49;79.84
69200;BME280;56313;49.804;9.952;2022-10-16T15:09:38;99484.69;;;18.40;80.86